Time;durP1;ratioP1;P1;durP2;ratioP2;P2;SDS_P1;SDS_P2;PMS_P1;PMS_P2;Temp;Humidity;BMP_temperature;BMP_pressure;BME280_temperature;BME280_humidity;BME280_pressure;Samples;Min_cycle;Max_cycle;Signal;HPM_P1;HPM_P2
2023/09/13 00:00:31;;;;;;;10.70;6.13;;;21.10;98.00;;;;;;5012810;28;20474;-67
2023/09/13 00:02:58;;;;;;;12.30;6.40;;;20.90;98.00;;;;;;5012966;28;20452;-68
2023/09/13 00:05:26;;;;;;;14.70;7.03;;;20.70;98.00;;;;;;5012814;28;20456;-67
2023/09/13 00:07:53;;;;;;;12.37;6.50;;;20.70;98.00;;;;;;5012544;28;20459;-68
2023/09/13 00:10:21;;;;;;;15.30;6.10;;;20.60;98.00;;;;;;5011458;28;20845;-67
2023/09/13 00:12:48;;;;;;;12.90;6.50;;;20.70;98.00;;;;;;5012616;28;20452;-68
2023/09/13 00:15:15;;;;;;;12.23;6.53;;;20.90;98.00;;;;;;5012693;28;20502;-67
2023/09/13 00:17:42;;;;;;;12.50;6.10;;;21.10;98.00;;;;;;5012492;28;20796;-68
2023/09/13 00:20:10;;;;;;;16.87;6.70;;;21.00;98.00;;;;;;5012550;28;20459;-68
2023/09/13 00:22:38;;;;;;;13.80;6.57;;;21.00;98.00;;;;;;5012513;28;20459;-67
2023/09/13 00:25:06;;;;;;;14.20;6.73;;;20.90;98.00;;;;;;5012515;28;20874;-68
2023/09/13 00:27:33;;;;;;;12.63;6.97;;;20.70;98.00;;;;;;5011263;28;20455;-67
2023/09/13 00:30:00;;;;;;;11.87;6.50;;;20.70;98.00;;;;;;5012224;28;20823;-68
2023/09/13 00:32:27;;;;;;;10.13;6.00;;;20.70;98.00;;;;;;5012348;28;20513;-68
2023/09/13 00:34:54;;;;;;;14.10;7.70;;;20.70;98.00;;;;;;5012165;28;20505;-68
2023/09/13 00:37:21;;;;;;;13.17;6.53;;;20.70;98.00;;;;;;5012263;28;20467;-68
2023/09/13 00:39:49;;;;;;;15.63;6.00;;;20.70;98.00;;;;;;5012116;28;20452;-68
2023/09/13 00:42:17;;;;;;;16.97;6.73;;;20.90;98.00;;;;;;5012230;28;20452;-67
2023/09/13 00:44:44;;;;;;;12.67;6.40;;;20.90;98.00;;;;;;5012173;28;20573;-67
2023/09/13 00:47:12;;;;;;;10.23;5.77;;;20.80;98.00;;;;;;5012090;28;20823;-67
2023/09/13 00:49:40;;;;;;;13.37;6.20;;;20.90;98.00;;;;;;5011975;28;20444;-68
2023/09/13 00:52:08;;;;;;;14.80;6.30;;;20.80;98.00;;;;;;5012013;28;20670;-67
2023/09/13 00:54:35;;;;;;;15.00;6.83;;;20.80;98.00;;;;;;5010727;28;20987;-69
2023/09/13 00:57:05;;;;;;;13.30;6.87;;;20.80;98.00;;;;;;5011732;28;20518;-67
2023/09/13 00:59:32;;;;;;;17.50;6.67;;;20.70;98.00;;;;;;5011918;28;20463;-68
2023/09/13 01:01:59;;;;;;;13.90;7.30;;;20.60;98.00;;;;;;5011870;28;20463;-68
2023/09/13 01:04:26;;;;;;;15.50;6.80;;;20.50;98.00;;;;;;5012106;28;20826;-68
2023/09/13 01:06:54;;;;;;;11.00;6.10;;;20.40;98.00;;;;;;5010565;28;20514;-67
2023/09/13 01:09:21;;;;;;;10.77;6.63;;;20.30;98.00;;;;;;5012107;28;20958;-67
2023/09/13 01:11:49;;;;;;;14.07;7.23;;;20.30;98.00;;;;;;5011939;28;20483;-67
2023/09/13 01:14:18;;;;;;;13.43;7.20;;;20.30;98.00;;;;;;5011947;28;20483;-67
2023/09/13 01:16:54;;;;;;;12.60;6.97;;;20.40;98.00;;;;;;5012090;28;20448;-67
2023/09/13 01:19:41;;;;;;;15.13;7.47;;;20.40;98.00;;;;;;5010605;28;20463;-68
2023/09/13 01:22:35;;;;;;;16.23;6.57;;;20.30;98.00;;;;;;5011662;28;20451;-67
2023/09/13 01:25:19;;;;;;;20.60;6.77;;;20.30;98.00;;;;;;5011670;28;21247;-66
2023/09/13 01:27:54;;;;;;;13.27;7.10;;;20.30;98.00;;;;;;5010103;28;20456;-66
2023/09/13 01:30:24;;;;;;;15.20;7.37;;;20.30;98.00;;;;;;5011536;28;20521;-67
2023/09/13 01:32:52;;;;;;;13.63;7.30;;;20.30;98.00;;;;;;5011478;28;20455;-68
2023/09/13 01:35:20;;;;;;;14.37;6.97;;;20.20;98.00;;;;;;5011390;28;20873;-67
2023/09/13 01:37:47;;;;;;;14.30;6.70;;;20.20;98.00;;;;;;5011952;28;20949;-67
2023/09/13 01:40:15;;;;;;;14.63;7.47;;;20.10;98.00;;;;;;5011963;28;20463;-67
2023/09/13 01:42:45;;;;;;;12.23;6.90;;;20.10;98.00;;;;;;5011903;28;20483;-66
2023/09/13 01:45:14;;;;;;;13.20;7.00;;;20.10;98.00;;;;;;5012177;28;20451;-67
2023/09/13 01:47:45;;;;;;;11.10;6.70;;;20.20;98.00;;;;;;5014871;28;20818;-66
2023/09/13 01:50:12;;;;;;;15.63;7.07;;;20.20;98.00;;;;;;5016106;28;20482;-67
2023/09/13 01:52:40;;;;;;;12.50;6.90;;;20.20;98.00;;;;;;5016034;28;20474;-67
2023/09/13 01:55:08;;;;;;;13.57;7.07;;;20.20;98.00;;;;;;5016015;28;20460;-67
2023/09/13 01:57:35;;;;;;;15.83;6.67;;;20.30;98.00;;;;;;5015888;28;20467;-66
2023/09/13 02:00:04;;;;;;;13.87;7.00;;;20.20;98.00;;;;;;5015929;28;20450;-66
2023/09/13 02:02:31;;;;;;;12.40;5.90;;;20.10;98.00;;;;;;5015845;28;20483;-68
2023/09/13 02:05:00;;;;;;;10.93;5.83;;;20.20;98.00;;;;;;5015798;28;20971;-67
2023/09/13 02:07:27;;;;;;;11.37;6.20;;;20.20;98.00;;;;;;5015984;28;20974;-68
2023/09/13 02:09:54;;;;;;;12.13;5.90;;;20.20;98.00;;;;;;5014574;28;20456;-67
2023/09/13 02:12:22;;;;;;;12.83;6.30;;;20.00;98.00;;;;;;5014394;28;20996;-66
2023/09/13 02:14:49;;;;;;;10.40;5.37;;;19.90;98.00;;;;;;5015586;28;20447;-66
2023/09/13 02:17:18;;;;;;;9.50;5.33;;;19.80;98.00;;;;;;5014569;28;20538;-66
2023/09/13 02:19:49;;;;;;;10.63;5.60;;;19.80;98.00;;;;;;5015762;28;20483;-66
2023/09/13 02:22:17;;;;;;;8.33;5.10;;;19.70;98.00;;;;;;5015675;28;20770;-68
2023/09/13 02:24:45;;;;;;;9.43;5.17;;;19.80;98.00;;;;;;5015365;28;20954;-67
2023/09/13 02:27:12;;;;;;;10.03;5.30;;;19.80;98.00;;;;;;5014290;28;20447;-66
2023/09/13 02:29:39;;;;;;;10.03;5.30;;;19.70;98.00;;;;;;5014633;28;20451;-68
2023/09/13 02:32:06;;;;;;;10.47;5.50;;;19.70;98.00;;;;;;5015424;28;20483;-67
2023/09/13 02:34:33;;;;;;;9.90;5.60;;;19.70;98.00;;;;;;5015570;28;20455;-66
2023/09/13 02:37:01;;;;;;;10.17;5.63;;;19.80;98.00;;;;;;5015434;28;20513;-67
2023/09/13 02:39:34;;;;;;;9.33;4.60;;;19.80;98.00;;;;;;5015651;28;20930;-67
2023/09/13 02:42:02;;;;;;;9.50;4.77;;;19.70;98.00;;;;;;5015479;28;20538;-66
2023/09/13 02:44:30;;;;;;;8.17;4.80;;;19.60;98.00;;;;;;5015595;28;20475;-67
2023/09/13 02:46:57;;;;;;;9.07;4.57;;;19.60;98.00;;;;;;5015464;28;20463;-67
2023/09/13 02:49:24;;;;;;;10.20;4.90;;;19.60;98.00;;;;;;5015459;28;20451;-68
2023/09/13 02:51:52;;;;;;;9.33;5.30;;;19.60;98.00;;;;;;5015310;28;20581;-66
2023/09/13 02:54:20;;;;;;;8.30;4.80;;;19.50;98.00;;;;;;4997640;28;20595;-66
2023/09/13 02:56:50;;;;;;;8.33;5.10;;;19.60;98.00;;;;;;5014873;28;20471;-67
2023/09/13 02:59:17;;;;;;;8.87;4.80;;;19.60;98.00;;;;;;5015019;28;20459;-67
2023/09/13 03:01:44;;;;;;;8.37;4.50;;;19.50;98.00;;;;;;5014723;28;20501;-66
2023/09/13 03:04:12;;;;;;;10.40;5.57;;;19.60;98.00;;;;;;5014631;28;20946;-67
2023/09/13 03:06:41;;;;;;;8.40;5.23;;;19.70;98.00;;;;;;5014778;28;20926;-67
2023/09/13 03:09:08;;;;;;;12.30;5.80;;;19.70;98.00;;;;;;5014554;28;20460;-67
2023/09/13 03:11:36;;;;;;;9.17;4.73;;;19.80;98.00;;;;;;5014571;28;20896;-66
2023/09/13 03:14:12;;;;;;;7.80;4.77;;;19.70;98.00;;;;;;5014281;28;20547;-67
2023/09/13 03:16:39;;;;;;;10.43;5.63;;;19.80;98.00;;;;;;5014427;28;21114;-66
2023/09/13 03:19:06;;;;;;;11.50;6.20;;;19.80;98.00;;;;;;5014629;28;20451;-66
2023/09/13 03:21:33;;;;;;;9.20;5.40;;;19.90;98.00;;;;;;5014392;28;20487;-67
2023/09/13 03:24:00;;;;;;;10.70;5.60;;;19.80;98.00;;;;;;5014330;28;20467;-66
2023/09/13 03:26:28;;;;;;;10.63;5.87;;;19.60;98.00;;;;;;5014299;28;20456;-66
2023/09/13 03:28:56;;;;;;;12.40;5.37;;;19.50;98.00;;;;;;5014265;28;20455;-66
2023/09/13 03:31:26;;;;;;;10.67;5.43;;;19.60;98.00;;;;;;5014207;28;20803;-66
2023/09/13 03:33:55;;;;;;;9.00;5.30;;;19.80;98.00;;;;;;5014148;28;20510;-66
2023/09/13 03:36:23;;;;;;;9.27;5.67;;;19.90;98.00;;;;;;5012907;28;20550;-67
2023/09/13 03:38:50;;;;;;;11.53;5.03;;;19.80;98.00;;;;;;5013869;28;20456;-66
2023/09/13 03:41:19;;;;;;;10.33;5.27;;;19.70;98.00;;;;;;5014129;28;20443;-66
2023/09/13 03:43:46;;;;;;;11.50;5.70;;;19.70;98.00;;;;;;5013979;28;20941;-66
2023/09/13 03:46:14;;;;;;;8.97;5.40;;;19.60;98.00;;;;;;5014265;28;20447;-66
2023/09/13 03:48:42;;;;;;;10.20;5.10;;;19.60;98.00;;;;;;5013946;28;20451;-67
2023/09/13 03:51:09;;;;;;;12.60;6.30;;;19.60;98.00;;;;;;5014019;28;20488;-67
2023/09/13 03:53:37;;;;;;;13.03;6.07;;;19.60;98.00;;;;;;5013460;28;20451;-66
2023/09/13 03:56:05;;;;;;;9.83;5.87;;;19.50;98.00;;;;;;5013191;28;20460;-66
2023/09/13 03:58:33;;;;;;;10.40;5.30;;;19.40;98.00;;;;;;5013078;28;20464;-66
2023/09/13 04:01:01;;;;;;;9.70;5.70;;;19.40;98.00;;;;;;5013002;28;20451;-67
2023/09/13 04:03:28;;;;;;;10.83;6.10;;;19.40;98.00;;;;;;5012943;28;20460;-67
2023/09/13 04:05:56;;;;;;;10.10;6.03;;;19.30;98.00;;;;;;5013263;28;20827;-67
2023/09/13 04:08:23;;;;;;;11.30;5.87;;;19.30;98.00;;;;;;5012930;28;20459;-67
2023/09/13 04:10:50;;;;;;;11.50;6.60;;;19.30;98.00;;;;;;5011388;28;20490;-67
2023/09/13 04:13:18;;;;;;;10.53;5.80;;;19.10;98.00;;;;;;5013642;28;20455;-66
2023/09/13 04:15:45;;;;;;;10.37;5.67;;;19.10;98.00;;;;;;5013674;28;20470;-66
2023/09/13 04:18:12;;;;;;;11.53;6.30;;;19.10;98.00;;;;;;5013463;28;20502;-67
2023/09/13 04:20:39;;;;;;;10.67;5.73;;;19.10;98.00;;;;;;5013481;28;20972;-66
2023/09/13 04:23:09;;;;;;;11.10;6.40;;;19.20;98.00;;;;;;5013782;28;20455;-67
2023/09/13 04:25:37;;;;;;;12.70;6.57;;;19.20;98.00;;;;;;5013208;28;20832;-66
2023/09/13 04:28:04;;;;;;;11.07;6.10;;;19.20;98.00;;;;;;5012078;28;20468;-66
2023/09/13 04:30:32;;;;;;;11.57;6.17;;;19.10;98.00;;;;;;5013425;28;20510;-66
2023/09/13 04:33:00;;;;;;;12.03;6.40;;;19.00;98.00;;;;;;5013444;28;21005;-66
2023/09/13 04:35:27;;;;;;;13.20;5.80;;;19.10;98.00;;;;;;5013088;28;20459;-67
2023/09/13 04:37:54;;;;;;;11.80;6.27;;;19.10;98.00;;;;;;5013063;28;20974;-66
2023/09/13 04:40:23;;;;;;;10.33;6.27;;;19.10;98.00;;;;;;5012091;28;20494;-66
2023/09/13 04:42:54;;;;;;;10.80;5.97;;;19.10;98.00;;;;;;5012696;28;20452;-67
2023/09/13 04:45:22;;;;;;;10.30;6.00;;;19.10;98.00;;;;;;5013067;28;20451;-67
2023/09/13 04:47:49;;;;;;;10.20;5.60;;;19.40;98.00;;;;;;5012872;28;20455;-67
2023/09/13 04:50:16;;;;;;;15.20;6.07;;;19.50;98.00;;;;;;5012975;28;20805;-66
2023/09/13 04:52:52;;;;;;;12.70;6.83;;;19.70;98.00;;;;;;5012357;28;20562;-68
2023/09/13 04:55:20;;;;;;;11.70;6.30;;;19.60;98.00;;;;;;5012733;28;20517;-66
2023/09/13 04:57:54;;;;;;;12.60;6.07;;;19.50;98.00;;;;;;5012414;28;20546;-66
2023/09/13 05:00:23;;;;;;;18.43;6.30;;;19.40;98.00;;;;;;5012636;28;20601;-68
2023/09/13 05:02:51;;;;;;;12.33;6.00;;;19.40;98.00;;;;;;5012373;28;20463;-66
2023/09/13 05:05:19;;;;;;;12.13;6.17;;;19.10;98.00;;;;;;5012666;28;20518;-67
2023/09/13 05:07:46;;;;;;;9.37;5.80;;;19.10;98.00;;;;;;5012328;28;20455;-67
2023/09/13 05:10:13;;;;;;;12.27;5.87;;;19.00;98.00;;;;;;5012719;28;20447;-66
2023/09/13 05:12:40;;;;;;;10.70;6.43;;;19.00;98.00;;;;;;5011149;28;20490;-67
2023/09/13 05:15:10;;;;;;;11.33;6.20;;;18.90;98.00;;;;;;5012648;28;20786;-66
2023/09/13 05:17:37;;;;;;;11.80;5.60;;;18.90;98.00;;;;;;5011245;28;20450;-67
2023/09/13 05:20:05;;;;;;;9.53;5.67;;;19.00;98.00;;;;;;5012546;28;20452;-66
2023/09/13 05:22:32;;;;;;;8.77;5.57;;;19.00;98.00;;;;;;5011641;28;20779;-66
2023/09/13 05:25:02;;;;;;;12.97;5.57;;;19.00;98.00;;;;;;5012527;28;20467;-66
2023/09/13 05:27:29;;;;;;;15.53;5.73;;;19.20;98.00;;;;;;5012488;28;20460;-66
2023/09/13 05:29:56;;;;;;;11.17;5.90;;;19.30;98.00;;;;;;5012258;28;20447;-66
2023/09/13 05:32:25;;;;;;;9.03;5.23;;;19.30;98.00;;;;;;5012357;28;20491;-66
2023/09/13 05:34:52;;;;;;;9.37;5.50;;;19.30;98.00;;;;;;5012240;28;20444;-67
2023/09/13 05:37:19;;;;;;;11.57;5.37;;;19.30;98.00;;;;;;5012445;28;20463;-67
2023/09/13 05:39:46;;;;;;;10.17;6.40;;;19.30;98.00;;;;;;5012301;28;20459;-68
2023/09/13 05:42:13;;;;;;;11.33;5.87;;;19.40;98.00;;;;;;5012408;28;20488;-66
2023/09/13 05:44:41;;;;;;;10.30;5.50;;;19.40;98.00;;;;;;5012391;28;20456;-67
2023/09/13 05:47:08;;;;;;;10.70;5.70;;;19.50;98.00;;;;;;5012518;28;20865;-67
2023/09/13 05:49:37;;;;;;;8.37;5.10;;;19.50;98.00;;;;;;5012303;28;20459;-66
2023/09/13 05:52:05;;;;;;;8.87;4.97;;;19.60;98.00;;;;;;5010756;28;21087;-66
2023/09/13 05:54:32;;;;;;;8.13;4.90;;;19.70;98.00;;;;;;5011934;28;20792;-67
2023/09/13 05:56:59;;;;;;;7.87;4.90;;;19.80;98.00;;;;;;5011813;28;20464;-67
2023/09/13 05:59:26;;;;;;;11.83;5.00;;;19.90;98.00;;;;;;5012091;28;20819;-68
2023/09/13 06:01:53;;;;;;;8.77;5.47;;;20.10;98.00;;;;;;5011150;28;20510;-62
2023/09/13 06:04:21;;;;;;;10.20;5.40;;;20.10;98.00;;;;;;5012197;28;20451;-63
2023/09/13 06:06:50;;;;;;;8.97;5.40;;;20.20;98.00;;;;;;5010857;28;20958;-63
2023/09/13 06:09:21;;;;;;;8.70;4.90;;;20.30;98.00;;;;;;5012161;28;20451;-63
2023/09/13 06:11:48;;;;;;;7.83;4.87;;;20.40;98.00;;;;;;5012378;28;20513;-63
2023/09/13 06:14:16;;;;;;;9.47;5.43;;;20.40;98.00;;;;;;5012014;28;21000;-63
2023/09/13 06:16:43;;;;;;;10.67;5.50;;;20.40;98.00;;;;;;5011850;28;20462;-63
2023/09/13 06:19:10;;;;;;;10.93;5.73;;;20.50;98.00;;;;;;5012171;28;20487;-63
2023/09/13 06:21:40;;;;;;;20.10;10.23;;;20.60;98.00;;;;;;5011841;28;20958;-62
2023/09/13 06:24:08;;;;;;;13.50;6.83;;;20.50;98.00;;;;;;5011845;28;20538;-63
2023/09/13 06:26:35;;;;;;;11.53;6.60;;;20.50;98.00;;;;;;5011649;28;20475;-63
2023/09/13 06:29:03;;;;;;;10.93;6.00;;;20.40;98.00;;;;;;5011731;28;20448;-63
2023/09/13 06:31:30;;;;;;;9.23;5.33;;;20.30;98.00;;;;;;5011630;28;20491;-63
2023/09/13 06:33:57;;;;;;;10.57;5.07;;;20.20;98.00;;;;;;5014483;28;20506;-63
2023/09/13 06:36:24;;;;;;;10.23;5.60;;;20.40;98.00;;;;;;5015358;28;20946;-63
2023/09/13 06:38:52;;;;;;;8.07;4.67;;;20.40;98.00;;;;;;5015366;28;20459;-63
2023/09/13 06:41:20;;;;;;;10.77;5.43;;;20.40;98.00;;;;;;5015198;28;20463;-63
2023/09/13 06:43:47;;;;;;;7.17;4.87;;;20.60;98.00;;;;;;5015023;28;20463;-63
2023/09/13 06:46:14;;;;;;;10.47;5.27;;;20.70;98.00;;;;;;5015208;28;20467;-63
2023/09/13 06:48:43;;;;;;;11.73;5.40;;;20.80;98.00;;;;;;5015097;28;20455;-63
2023/09/13 06:51:10;;;;;;;8.30;4.40;;;20.90;98.00;;;;;;5015006;28;20950;-63
2023/09/13 06:53:37;;;;;;;9.33;5.47;;;21.10;98.00;;;;;;5014846;28;20487;-63
2023/09/13 06:56:05;;;;;;;8.17;5.00;;;21.20;98.00;;;;;;5014969;28;20459;-62
2023/09/13 06:58:33;;;;;;;8.93;5.57;;;21.20;98.00;;;;;;5014750;28;20455;-63
2023/09/13 07:01:03;;;;;;;8.83;4.97;;;21.10;98.00;;;;;;5015044;28;20459;-63
2023/09/13 07:03:30;;;;;;;9.20;5.27;;;20.90;98.00;;;;;;5014867;28;20829;-63
2023/09/13 07:06:00;;;;;;;9.87;5.43;;;20.90;98.00;;;;;;5014818;28;20451;-63
2023/09/13 07:08:28;;;;;;;9.77;4.50;;;20.80;98.00;;;;;;5015055;28;20451;-63
2023/09/13 07:10:55;;;;;;;17.83;7.10;;;20.70;98.00;;;;;;5014944;28;20463;-63
2023/09/13 07:13:22;;;;;;;21.37;8.10;;;20.70;98.00;;;;;;5014676;28;20487;-63
2023/09/13 07:15:51;;;;;;;11.80;5.57;;;20.70;98.00;;;;;;5014782;28;20452;-63
2023/09/13 07:18:18;;;;;;;7.70;4.60;;;20.90;98.00;;;;;;5014674;28;20447;-63
2023/09/13 07:20:46;;;;;;;12.00;5.17;;;20.90;98.00;;;;;;5014627;28;20455;-63
2023/09/13 07:23:13;;;;;;;12.23;5.10;;;21.00;98.00;;;;;;5014613;28;20880;-63
2023/09/13 07:25:40;;;;;;;8.97;4.93;;;21.10;98.00;;;;;;4997407;28;20478;-63
2023/09/13 07:28:10;;;;;;;8.93;5.07;;;21.10;98.00;;;;;;5014702;28;20451;-62
2023/09/13 07:30:39;;;;;;;6.87;4.63;;;21.10;98.00;;;;;;5012939;28;20525;-63
2023/09/13 07:33:07;;;;;;;7.23;4.53;;;21.10;98.00;;;;;;5014332;28;20569;-63
2023/09/13 07:38:10;;;;;;;8.23;5.13;;;21.40;98.00;;;;;;4982303;28;20507;-62
2023/09/13 07:40:38;;;;;;;7.70;4.17;;;21.50;98.00;;;;;;4994516;28;20543;-63
2023/09/13 07:43:07;;;;;;;7.30;4.40;;;21.60;98.00;;;;;;4994456;28;20460;-62
2023/09/13 07:45:34;;;;;;;8.10;4.90;;;21.50;98.00;;;;;;4973877;28;21028;-63
2023/09/13 07:48:02;;;;;;;8.30;5.07;;;21.60;98.00;;;;;;4974998;28;20470;-63
2023/09/13 07:50:33;;;;;;;7.33;4.53;;;21.70;98.00;;;;;;4975059;28;20449;-63
2023/09/13 07:53:00;;;;;;;9.77;5.20;;;21.90;98.00;;;;;;4974513;28;20544;-62
2023/09/13 07:55:27;;;;;;;7.97;4.73;;;22.10;98.00;;;;;;4973233;28;20450;-64
2023/09/13 07:57:55;;;;;;;8.97;4.67;;;22.30;98.00;;;;;;4962747;28;20518;-63
2023/09/13 08:00:22;;;;;;;8.40;4.93;;;22.50;98.00;;;;;;4973342;28;20461;-63
2023/09/13 08:02:49;;;;;;;7.30;4.37;;;22.50;98.00;;;;;;4974324;28;20842;-62
2023/09/13 08:05:17;;;;;;;6.30;4.07;;;22.50;98.00;;;;;;4974787;28;20520;-63
2023/09/13 08:07:46;;;;;;;6.77;3.80;;;22.40;98.00;;;;;;4973415;28;20469;-63
2023/09/13 08:10:14;;;;;;;7.63;4.07;;;22.30;98.00;;;;;;4956181;28;20516;-63
2023/09/13 08:12:42;;;;;;;5.80;3.73;;;22.20;98.00;;;;;;4973552;28;20488;-63
2023/09/13 08:15:09;;;;;;;5.60;3.70;;;22.20;98.00;;;;;;4973569;28;20453;-63
2023/09/13 08:17:39;;;;;;;5.77;3.73;;;22.20;98.00;;;;;;4973318;28;20520;-63
2023/09/13 08:20:08;;;;;;;5.97;3.83;;;22.30;98.00;;;;;;4973566;28;20480;-63
2023/09/13 08:22:35;;;;;;;5.47;3.47;;;22.20;98.00;;;;;;4973535;28;20462;-63
2023/09/13 08:25:05;;;;;;;6.47;3.80;;;22.00;98.00;;;;;;4956190;28;21006;-63
2023/09/13 08:27:33;;;;;;;5.87;3.97;;;22.00;98.00;;;;;;4973529;28;20458;-63
2023/09/13 08:30:00;;;;;;;5.10;3.50;;;21.90;98.00;;;;;;4972963;28;20449;-63
2023/09/13 08:32:27;;;;;;;4.77;3.43;;;22.00;98.00;;;;;;4973379;28;20485;-63
2023/09/13 08:34:55;;;;;;;8.87;3.83;;;21.90;98.00;;;;;;4973246;28;20457;-63
2023/09/13 08:37:22;;;;;;;6.83;3.97;;;21.90;98.00;;;;;;4956141;28;20492;-63
2023/09/13 08:39:49;;;;;;;4.87;3.40;;;21.90;98.00;;;;;;4973098;28;20464;-63
2023/09/13 08:42:19;;;;;;;7.10;3.57;;;21.90;98.00;;;;;;4973106;28;20460;-62
2023/09/13 08:44:47;;;;;;;6.57;3.83;;;21.90;98.00;;;;;;4973073;28;20462;-62
2023/09/13 08:47:15;;;;;;;5.00;3.77;;;21.70;98.00;;;;;;4973840;28;20951;-62
2023/09/13 08:49:43;;;;;;;6.13;3.50;;;21.70;98.00;;;;;;4956680;28;20453;-63
2023/09/13 08:52:11;;;;;;;4.47;2.93;;;21.60;98.00;;;;;;4973909;28;20485;-63
2023/09/13 08:54:40;;;;;;;5.60;3.20;;;21.60;98.00;;;;;;4973637;28;20464;-63
2023/09/13 08:57:07;;;;;;;4.70;3.10;;;21.60;98.00;;;;;;4973477;28;20457;-62
2023/09/13 08:59:35;;;;;;;6.00;3.70;;;21.70;98.00;;;;;;4973701;28;20838;-63
2023/09/13 09:02:05;;;;;;;5.27;3.20;;;21.70;98.00;;;;;;4973796;28;20461;-63
2023/09/13 09:04:32;;;;;;;8.10;3.43;;;21.70;98.00;;;;;;4973443;28;20465;-67
2023/09/13 09:06:59;;;;;;;5.80;3.00;;;21.60;98.00;;;;;;4973576;28;20469;-63
2023/09/13 09:09:31;;;;;;;5.30;3.27;;;21.70;98.00;;;;;;4973093;28;20951;-62
2023/09/13 09:12:04;;;;;;;6.50;3.37;;;21.50;98.00;;;;;;4956873;28;20556;-63
2023/09/13 09:14:33;;;;;;;5.50;3.10;;;21.30;98.00;;;;;;4973286;28;20489;-63
2023/09/13 09:17:04;;;;;;;5.30;3.10;;;21.40;98.00;;;;;;4956337;28;20453;-63
2023/09/13 09:19:32;;;;;;;4.37;3.00;;;21.40;98.00;;;;;;4973507;28;20507;-63
2023/09/13 09:22:01;;;;;;;3.80;3.03;;;21.40;98.00;;;;;;4973353;28;20457;-63
2023/09/13 09:24:29;;;;;;;4.17;3.00;;;21.40;98.00;;;;;;4973377;28;20457;-62
2023/09/13 09:26:57;;;;;;;5.30;3.10;;;21.50;98.00;;;;;;4973235;28;20504;-63
2023/09/13 09:29:35;;;;;;;4.40;2.93;;;21.50;98.00;;;;;;4973455;28;20516;-63
2023/09/13 09:32:07;;;;;;;9.40;3.07;;;21.60;98.00;;;;;;4973010;28;20547;-63
2023/09/13 09:34:35;;;;;;;4.80;3.07;;;21.70;98.00;;;;;;4973365;28;20488;-63
2023/09/13 09:37:06;;;;;;;7.37;3.20;;;21.70;98.00;;;;;;4972954;28;20991;-63
2023/09/13 09:39:37;;;;;;;5.03;3.30;;;21.80;98.00;;;;;;4972943;28;20460;-63
2023/09/13 09:42:05;;;;;;;4.57;3.20;;;21.70;98.00;;;;;;4972709;28;20457;-63
2023/09/13 09:44:33;;;;;;;4.43;3.00;;;21.70;98.00;;;;;;4972964;28;20986;-62
2023/09/13 09:47:00;;;;;;;6.20;3.43;;;21.60;98.00;;;;;;4972768;28;20457;-62
2023/09/13 09:49:28;;;;;;;4.97;2.90;;;21.60;98.00;;;;;;4972904;28;20460;-63
2023/09/13 09:51:55;;;;;;;4.97;3.30;;;21.60;98.00;;;;;;4972682;28;20504;-62
2023/09/13 09:54:22;;;;;;;4.33;3.00;;;21.60;98.00;;;;;;4972868;28;20889;-63
2023/09/13 09:56:50;;;;;;;5.17;3.67;;;21.60;98.00;;;;;;4972577;28;20457;-63
2023/09/13 09:59:17;;;;;;;6.53;3.40;;;21.60;98.00;;;;;;4987374;28;20468;-62
2023/09/13 10:01:46;;;;;;;5.60;3.73;;;21.70;98.00;;;;;;4972453;28;20457;-63
2023/09/13 10:04:16;;;;;;;5.30;3.53;;;21.50;98.00;;;;;;4972992;28;20812;-63
2023/09/13 10:07:03;;;;;;;6.57;3.60;;;21.50;98.00;;;;;;4972733;28;20465;-63
2023/09/13 10:09:39;;;;;;;5.13;3.27;;;21.40;98.00;;;;;;4975960;28;20939;-63
2023/09/13 10:12:09;;;;;;;6.00;3.63;;;21.40;98.00;;;;;;4976405;28;20457;-62
2023/09/13 10:14:37;;;;;;;7.40;3.93;;;21.40;98.00;;;;;;4976397;28;20496;-63
2023/09/13 10:17:05;;;;;;;6.30;3.80;;;21.50;98.00;;;;;;4976399;28;20450;-63
2023/09/13 10:19:33;;;;;;;5.17;3.80;;;21.40;98.00;;;;;;4991257;28;20457;-63
2023/09/13 10:22:03;;;;;;;7.13;3.70;;;21.40;98.00;;;;;;4976424;28;20468;-63
2023/09/13 10:24:36;;;;;;;6.33;3.70;;;21.30;98.00;;;;;;4976353;28;20953;-63
2023/09/13 10:27:07;;;;;;;5.97;3.50;;;21.30;98.00;;;;;;4976229;28;21043;-63
2023/09/13 10:29:40;;;;;;;5.60;3.53;;;21.40;98.00;;;;;;4976107;28;20548;-62
2023/09/13 10:32:09;;;;;;;4.37;3.20;;;21.50;98.00;;;;;;4975999;28;20473;-63
2023/09/13 10:34:41;;;;;;;7.03;3.83;;;21.60;98.00;;;;;;4976037;28;20600;-63
2023/09/13 10:37:13;;;;;;;5.77;3.83;;;21.80;98.00;;;;;;4976932;28;20987;-63
2023/09/13 10:39:47;;;;;;;6.20;3.90;;;21.90;98.00;;;;;;4975933;28;20828;-63
2023/09/13 10:42:15;;;;;;;5.50;3.53;;;21.90;98.00;;;;;;4975983;28;20794;-62
2023/09/13 10:44:43;;;;;;;6.13;3.77;;;21.90;98.00;;;;;;4975842;28;20459;-62
2023/09/13 10:47:11;;;;;;;6.83;3.60;;;21.90;98.00;;;;;;4975981;28;20547;-62
2023/09/13 10:49:38;;;;;;;7.23;3.67;;;22.10;98.00;;;;;;4975758;28;20861;-63
2023/09/13 10:52:06;;;;;;;7.57;4.30;;;22.20;98.00;;;;;;4975954;28;20489;-63
2023/09/13 10:54:37;;;;;;;15.53;4.00;;;22.10;98.00;;;;;;4975585;28;21022;-63
2023/09/13 10:57:05;;;;;;;6.23;3.73;;;22.10;98.00;;;;;;4975872;28;20453;-63
2023/09/13 10:59:34;;;;;;;5.90;3.70;;;22.20;98.00;;;;;;4975888;28;20449;-63
2023/09/13 11:02:04;;;;;;;7.63;3.50;;;22.30;98.00;;;;;;4975908;28;20465;-62
2023/09/13 11:04:32;;;;;;;6.13;3.23;;;22.30;98.00;;;;;;4976212;28;20449;-66
2023/09/13 11:07:01;;;;;;;5.90;3.13;;;22.50;98.00;;;;;;4975951;28;20458;-65
2023/09/13 11:09:30;;;;;;;5.27;3.37;;;22.90;98.00;;;;;;4975723;28;20544;-67
2023/09/13 11:12:00;;;;;;;4.90;3.30;;;23.30;98.00;;;;;;4975642;28;20441;-67
2023/09/13 11:14:29;;;;;;;7.50;3.57;;;23.50;98.00;;;;;;4975432;28;20525;-67
2023/09/13 11:17:09;;;;;;;6.40;3.97;;;23.60;98.00;;;;;;4975351;28;20457;-63
2023/09/13 11:19:36;;;;;;;5.27;3.77;;;23.60;98.00;;;;;;4974274;28;20950;-64
2023/09/13 11:22:05;;;;;;;6.43;3.40;;;23.40;98.00;;;;;;4975406;28;20466;-63
2023/09/13 11:24:36;;;;;;;4.47;3.10;;;23.30;98.00;;;;;;4975282;28;20820;-63
2023/09/13 11:27:13;;;;;;;4.70;3.37;;;23.30;98.00;;;;;;4974922;28;20878;-63
2023/09/13 11:29:44;;;;;;;4.63;2.97;;;23.20;98.00;;;;;;4975112;28;20460;-63
2023/09/13 11:32:18;;;;;;;4.33;3.40;;;22.90;98.00;;;;;;4975138;28;20457;-63
2023/09/13 11:34:48;;;;;;;5.27;3.27;;;23.00;98.00;;;;;;4958056;28;20571;-65
2023/09/13 11:37:17;;;;;;;8.30;3.80;;;23.10;98.00;;;;;;4956650;28;20532;-64
2023/09/13 11:39:52;;;;;;;4.67;3.50;;;23.00;98.00;;;;;;4974923;28;20500;-64
2023/09/13 11:42:27;;;;;;;4.97;3.10;;;23.00;98.00;;;;;;4974732;28;20955;-64
2023/09/13 11:44:55;;;;;;;5.20;3.30;;;23.00;98.00;;;;;;4974672;28;20947;-65
2023/09/13 11:47:23;;;;;;;4.50;3.10;;;22.90;98.00;;;;;;4974487;28;21013;-64
2023/09/13 11:49:55;;;;;;;4.67;3.40;;;23.00;98.00;;;;;;4974660;28;20461;-64
2023/09/13 11:52:23;;;;;;;7.10;3.60;;;23.20;98.00;;;;;;4974726;28;20516;-65
2023/09/13 11:54:55;;;;;;;5.43;3.50;;;23.50;98.00;;;;;;4957494;28;21029;-64
2023/09/13 11:57:24;;;;;;;5.90;4.00;;;23.50;98.00;;;;;;4957534;28;20481;-64
2023/09/13 11:59:53;;;;;;;5.50;3.57;;;23.80;98.00;;;;;;4957381;28;20536;-65
2023/09/13 12:02:20;;;;;;;5.70;3.70;;;24.10;98.00;;;;;;4974716;28;21143;-65
2023/09/13 12:04:50;;;;;;;5.30;3.30;;;24.40;98.00;;;;;;4957307;28;20461;-65
2023/09/13 12:07:18;;;;;;;5.30;3.60;;;24.70;98.00;;;;;;4974428;28;20468;-65
2023/09/13 12:09:55;;;;;;;5.63;3.70;;;24.70;98.00;;;;;;4941727;28;20508;-65
2023/09/13 12:12:23;;;;;;;7.00;3.73;;;24.90;98.00;;;;;;4974292;28;20489;-65
2023/09/13 12:14:51;;;;;;;5.63;3.60;;;24.60;98.00;;;;;;4974475;28;20493;-65
2023/09/13 12:17:18;;;;;;;5.53;3.60;;;24.60;98.00;;;;;;4974242;28;20489;-64
2023/09/13 12:19:47;;;;;;;6.00;3.70;;;24.80;98.00;;;;;;4974506;28;20960;-64
2023/09/13 12:22:17;;;;;;;5.20;3.50;;;25.00;98.00;;;;;;4988836;28;20492;-64
2023/09/13 12:24:52;;;;;;;5.63;3.60;;;24.90;98.00;;;;;;4974229;28;20453;-65
2023/09/13 12:27:42;;;;;;;5.83;3.50;;;24.80;98.00;;;;;;4974135;28;20532;-65
2023/09/13 12:30:16;;;;;;;6.07;4.07;;;24.80;98.00;;;;;;4973649;28;20601;-65
2023/09/13 12:32:45;;;;;;;5.67;3.80;;;24.80;98.00;;;;;;4974094;28;20537;-65
2023/09/13 12:35:13;;;;;;;5.80;3.77;;;24.90;98.00;;;;;;4974191;28;20485;-64
2023/09/13 12:37:40;;;;;;;5.70;3.60;;;24.70;98.00;;;;;;4973931;28;20465;-65
2023/09/13 12:40:14;;;;;;;5.53;3.40;;;24.50;98.00;;;;;;4957160;28;20456;-65
2023/09/13 12:42:43;;;;;;;7.77;4.13;;;24.60;98.00;;;;;;4973791;28;21192;-65
2023/09/13 12:45:12;;;;;;;6.30;4.00;;;24.80;98.00;;;;;;4973567;28;20465;-66
2023/09/13 12:47:39;;;;;;;6.27;4.07;;;24.80;98.00;;;;;;4973646;28;20940;-65
2023/09/13 12:50:08;;;;;;;6.33;3.60;;;24.60;98.00;;;;;;4973791;28;20540;-66
2023/09/13 12:52:35;;;;;;;6.10;3.60;;;24.70;98.00;;;;;;4956173;28;20959;-66